Twin Valley, Minnesota
Current Conditions -  °F | °C
As of 2:35 AM on Thursday 23 Oct 2014 (Local Time) from K3N8 Reporting Station
Clear Clear  
Wind Chill: 43°   Ceiling: Unl
Heat Index: 48°   Visibility: 10mi
Dew Point: 47°   Wind: 12mph
Humidity: 97%   Direction: 190°S
Pressure: 29.89"   Gusts: NA
Location:  47.26°N, 96.26°W
Report Text: K3N8 230735Z AUTO 19010KT 10SM CLR 09/08 A2989 RMK AO2 T00870082
Loading
Personal Weather Stations






























Interactive Weather Map
Tropical Storm Tracking
New forecast layout! Learn more

10-Day Weather Forecast

Advertisements
Track Severe Weather on mobile